Time;durP1;ratioP1;P1;durP2;ratioP2;P2;SDS_P1;SDS_P2;PMS_P1;PMS_P2;Temp;Humidity;BMP_temperature;BMP_pressure;BME280_temperature;BME280_humidity;BME280_pressure;Samples;Min_cycle;Max_cycle;Signal;HPM_P1;HPM_P2
2023/09/16 00:01:52;;;;;;;2.40;1.37;;;19.50;65.90;;;;;;4932731;28;20398;-17
2023/09/16 00:04:18;;;;;;;2.15;1.50;;;19.50;66.00;;;;;;4922794;28;20052;-17
2023/09/16 00:06:44;;;;;;;1.85;1.27;;;19.40;66.00;;;;;;4924919;28;20402;-17
2023/09/16 00:09:09;;;;;;;2.47;1.60;;;19.40;66.00;;;;;;4935347;28;20173;-17
2023/09/16 00:11:36;;;;;;;2.78;1.42;;;19.40;66.20;;;;;;4925099;28;20031;-17
2023/09/16 00:14:02;;;;;;;2.90;1.40;;;19.30;66.20;;;;;;4928641;28;20028;-17
2023/09/16 00:16:29;;;;;;;2.27;1.40;;;19.30;66.30;;;;;;4907903;28;20506;-17
2023/09/16 00:18:55;;;;;;;2.42;1.80;;;19.30;66.40;;;;;;4952314;28;20050;-17
2023/09/16 00:21:21;;;;;;;1.80;1.30;;;19.20;67.20;;;;;;4931203;28;20533;-17
2023/09/16 00:23:47;;;;;;;1.70;1.33;;;19.20;66.50;;;;;;4931749;28;20047;-17
2023/09/16 00:26:15;;;;;;;2.05;1.38;;;19.20;66.50;;;;;;4924923;28;20047;-17
2023/09/16 00:28:41;;;;;;;2.50;1.50;;;19.10;66.70;;;;;;4932189;28;20023;-17
2023/09/16 00:31:07;;;;;;;2.28;1.55;;;19.10;66.60;;;;;;4909120;28;20248;-17
2023/09/16 00:33:33;;;;;;;1.67;1.17;;;19.10;66.70;;;;;;4924340;28;20536;-17
2023/09/16 00:35:59;;;;;;;2.00;1.30;;;19.10;66.70;;;;;;4937316;28;20031;-17
2023/09/16 00:38:25;;;;;;;1.95;1.30;;;19.00;66.70;;;;;;4929316;28;20023;-17
2023/09/16 00:40:51;;;;;;;2.40;1.60;;;19.00;66.80;;;;;;4933253;28;20031;-17
2023/09/16 00:43:17;;;;;;;2.95;1.27;;;19.00;66.90;;;;;;4926282;28;20040;-17
2023/09/16 00:45:43;;;;;;;1.53;1.37;;;18.90;66.80;;;;;;4907757;28;21197;-17
2023/09/16 00:48:12;;;;;;;1.98;1.40;;;18.60;70.10;;;;;;4931854;28;20039;-17
2023/09/16 00:50:38;;;;;;;1.83;1.17;;;18.80;67.00;;;;;;4933865;28;20039;-17
2023/09/16 00:53:04;;;;;;;2.72;1.42;;;18.80;66.90;;;;;;4938855;28;20571;-17
2023/09/16 00:55:30;;;;;;;1.70;1.20;;;18.80;67.10;;;;;;4938748;28;20034;-17
2023/09/16 00:57:57;;;;;;;2.25;1.40;;;18.80;67.10;;;;;;4930641;28;21235;-17
2023/09/16 01:00:26;;;;;;;2.08;1.30;;;18.70;67.20;;;;;;4938214;28;20236;-17
2023/09/16 01:02:56;;;;;;;2.45;1.70;;;18.70;67.20;;;;;;4913542;28;20124;-17
2023/09/16 01:05:22;;;;;;;2.83;1.30;;;18.70;67.30;;;;;;4923956;28;20044;-17
2023/09/16 01:07:48;;;;;;;1.80;1.30;;;18.60;67.30;;;;;;4934378;28;20046;-17
2023/09/16 01:10:15;;;;;;;2.10;1.40;;;18.60;67.40;;;;;;4927975;28;20046;-17
2023/09/16 01:12:48;;;;;;;2.05;1.30;;;18.60;67.40;;;;;;4934381;28;20102;-17
2023/09/16 01:15:16;;;;;;;1.88;1.30;;;18.50;67.90;;;;;;4925585;28;20556;-17
2023/09/16 01:17:55;;;;;;;2.38;1.50;;;18.50;67.60;;;;;;4912167;28;20593;-17
2023/09/16 01:20:21;;;;;;;1.90;1.30;;;18.50;68.60;;;;;;4925686;28;20019;-17
2023/09/16 01:22:47;;;;;;;2.25;1.38;;;18.40;67.70;;;;;;4926356;28;20211;-17
2023/09/16 01:25:14;;;;;;;1.80;1.33;;;18.40;67.70;;;;;;4926333;28;20027;-17
2023/09/16 01:27:41;;;;;;;1.85;1.30;;;18.40;67.90;;;;;;4930324;28;20032;-17
2023/09/16 01:30:08;;;;;;;1.40;1.30;;;18.30;67.90;;;;;;4930223;28;20212;-17
2023/09/16 01:33:18;;;;;;;1.63;1.20;;;18.30;68.00;;;;;;4915867;28;20055;-17
2023/09/16 01:35:47;;;;;;;2.30;1.40;;;18.20;69.20;;;;;;4961569;28;20191;-17
2023/09/16 01:38:15;;;;;;;2.45;1.35;;;18.20;68.10;;;;;;4930002;28;20027;-17
2023/09/16 01:40:44;;;;;;;1.77;1.23;;;18.20;68.10;;;;;;4927982;28;20046;-18
2023/09/16 01:43:11;;;;;;;2.30;1.65;;;18.10;68.60;;;;;;4940183;28;20026;-17
2023/09/16 01:45:43;;;;;;;2.23;1.40;;;18.10;68.50;;;;;;4928621;28;20439;-17
2023/09/16 01:48:10;;;;;;;2.10;1.40;;;18.10;69.10;;;;;;4909542;28;20054;-17
2023/09/16 01:50:35;;;;;;;2.03;1.50;;;18.00;68.50;;;;;;4923181;28;20031;-17
2023/09/16 01:53:02;;;;;;;2.23;1.50;;;18.00;68.70;;;;;;4928822;28;20077;-17
2023/09/16 01:55:30;;;;;;;3.15;1.50;;;18.00;68.80;;;;;;4934386;28;20608;-17
2023/09/16 01:57:57;;;;;;;2.08;1.70;;;17.90;68.80;;;;;;4932876;28;20443;-17
2023/09/16 02:00:23;;;;;;;1.90;1.50;;;17.90;68.80;;;;;;4928366;28;20434;-17
2023/09/16 02:02:49;;;;;;;2.40;1.63;;;17.90;68.80;;;;;;4911309;28;20330;-17
2023/09/16 02:05:15;;;;;;;2.10;1.38;;;17.80;68.80;;;;;;4928107;28;20050;-17
2023/09/16 02:07:42;;;;;;;2.72;1.45;;;17.80;68.80;;;;;;4918842;28;20714;-17
2023/09/16 02:10:08;;;;;;;2.10;1.50;;;17.80;68.80;;;;;;4921804;28;20422;-17
2023/09/16 02:12:34;;;;;;;2.37;1.50;;;17.80;69.00;;;;;;4928929;28;20031;-17
2023/09/16 02:15:01;;;;;;;1.83;1.30;;;17.70;69.00;;;;;;4924162;28;20039;-17
2023/09/16 02:17:27;;;;;;;2.30;1.50;;;19.00;74.20;;;;;;4928955;28;20092;-18
2023/09/16 02:19:53;;;;;;;1.60;1.20;;;17.70;69.00;;;;;;4912866;28;20239;-17
2023/09/16 02:22:18;;;;;;;1.75;1.25;;;17.60;69.10;;;;;;4926194;28;20394;-18
2023/09/16 02:24:44;;;;;;;1.95;1.33;;;17.60;69.20;;;;;;4929864;28;20351;-17
2023/09/16 02:27:10;;;;;;;1.50;1.30;;;17.60;69.20;;;;;;4930704;28;20035;-17
2023/09/16 02:29:36;;;;;;;1.88;1.30;;;17.60;69.30;;;;;;4927245;28;20093;-17
2023/09/16 02:32:02;;;;;;;2.03;1.30;;;17.50;69.30;;;;;;4923658;28;20027;-17
2023/09/16 02:34:28;;;;;;;1.85;1.40;;;17.50;69.40;;;;;;4902141;28;20091;-17
2023/09/16 02:36:54;;;;;;;5.38;2.22;;;17.50;69.40;;;;;;4924164;28;20062;-17
2023/09/16 02:39:19;;;;;;;2.40;1.40;;;17.50;69.50;;;;;;4925698;28;20505;-17
2023/09/16 02:41:45;;;;;;;1.75;1.40;;;16.70;73.40;;;;;;4926919;28;20050;-17
2023/09/16 02:44:11;;;;;;;1.90;1.40;;;17.40;69.70;;;;;;4936670;28;20039;-17
2023/09/16 02:46:36;;;;;;;3.63;1.55;;;17.40;69.80;;;;;;4920243;28;20111;-17
2023/09/16 02:49:02;;;;;;;1.43;1.30;;;17.30;69.80;;;;;;4911524;28;20992;-17
2023/09/16 02:51:32;;;;;;;2.08;1.40;;;17.30;69.80;;;;;;4918660;28;20137;-17
2023/09/16 02:53:58;;;;;;;2.53;1.38;;;17.30;69.90;;;;;;4919012;28;20284;-17
2023/09/16 02:56:24;;;;;;;2.33;1.60;;;17.30;69.90;;;;;;4931535;28;20569;-17
2023/09/16 02:58:51;;;;;;;1.73;1.38;;;17.30;70.00;;;;;;4929834;28;20217;-17
2023/09/16 03:01:17;;;;;;;1.55;1.30;;;17.30;70.00;;;;;;4929514;28;20077;-17
2023/09/16 03:03:43;;;;;;;2.17;1.40;;;17.30;70.10;;;;;;4923458;28;20256;-17
2023/09/16 03:06:09;;;;;;;2.55;1.40;;;17.20;70.10;;;;;;4929902;28;20119;-17
2023/09/16 03:08:35;;;;;;;2.40;1.50;;;17.20;70.20;;;;;;4921939;28;20027;-17
2023/09/16 03:11:05;;;;;;;1.93;1.30;;;17.10;70.20;;;;;;4927069;28;20031;-17
2023/09/16 03:13:31;;;;;;;1.92;1.42;;;17.10;70.70;;;;;;4948612;28;20081;-17
2023/09/16 03:16:19;;;;;;;2.55;1.50;;;17.10;70.20;;;;;;4930562;28;20564;-17
2023/09/16 03:18:46;;;;;;;2.37;1.57;;;17.10;71.80;;;;;;4920122;28;20038;-17
2023/09/16 03:21:13;;;;;;;2.63;1.45;;;17.00;70.30;;;;;;4911123;28;20036;-17
2023/09/16 03:23:40;;;;;;;4.20;1.58;;;17.00;70.40;;;;;;4919875;28;20135;-17
2023/09/16 03:26:07;;;;;;;1.80;1.30;;;17.00;70.50;;;;;;4929397;28;20066;-17
2023/09/16 03:28:33;;;;;;;2.38;1.55;;;17.00;70.50;;;;;;4926615;28;20051;-17
2023/09/16 03:30:59;;;;;;;1.87;1.53;;;16.90;70.50;;;;;;4929511;28;20078;-17
2023/09/16 03:33:24;;;;;;;2.22;1.50;;;16.90;70.50;;;;;;4928448;28;20039;-17
2023/09/16 03:35:50;;;;;;;2.10;1.47;;;16.90;70.60;;;;;;4923148;28;20234;-17
2023/09/16 03:38:16;;;;;;;2.65;1.45;;;16.90;70.60;;;;;;4907278;28;20047;-17
2023/09/16 03:40:42;;;;;;;2.72;1.65;;;16.90;70.80;;;;;;4921389;28;20251;-17
2023/09/16 03:43:08;;;;;;;1.90;1.50;;;16.90;70.80;;;;;;4928600;28;20074;-17
2023/09/16 03:45:34;;;;;;;2.03;1.40;;;16.80;70.80;;;;;;4926062;28;20028;-17
2023/09/16 03:47:59;;;;;;;2.53;1.70;;;16.80;70.90;;;;;;4922614;28;20117;-17
2023/09/16 03:50:27;;;;;;;2.92;1.48;;;16.80;70.90;;;;;;4944852;28;20745;-17
2023/09/16 03:52:53;;;;;;;2.55;1.52;;;16.80;71.10;;;;;;4908398;28;20118;-17
2023/09/16 03:55:19;;;;;;;1.87;1.30;;;16.70;71.00;;;;;;4932154;28;20117;-17
2023/09/16 03:57:44;;;;;;;1.77;1.40;;;16.70;71.00;;;;;;4923305;28;20496;-17
2023/09/16 04:00:11;;;;;;;2.60;1.43;;;16.70;71.10;;;;;;4935059;28;20032;-17
2023/09/16 04:02:38;;;;;;;2.00;1.48;;;16.70;71.30;;;;;;4917202;28;20063;-17
2023/09/16 04:05:05;;;;;;;2.10;1.40;;;16.60;71.30;;;;;;4933271;28;20502;-17
2023/09/16 04:07:31;;;;;;;2.30;1.52;;;16.60;71.40;;;;;;4930683;28;20409;-17
2023/09/16 04:09:57;;;;;;;2.55;1.60;;;16.50;74.20;;;;;;4907125;28;20520;-17
2023/09/16 04:12:23;;;;;;;2.17;1.60;;;16.60;71.50;;;;;;4942285;28;20081;-17
2023/09/16 04:14:50;;;;;;;3.20;1.65;;;16.50;71.50;;;;;;4928085;28;20039;-17
2023/09/16 04:17:16;;;;;;;2.00;1.50;;;16.50;71.50;;;;;;4930971;28;20028;-17
2023/09/16 04:19:41;;;;;;;1.88;1.50;;;16.50;71.50;;;;;;4940078;28;20041;-17
2023/09/16 04:22:07;;;;;;;2.73;1.60;;;16.50;71.60;;;;;;4957622;28;20521;-16
2023/09/16 04:24:33;;;;;;;3.35;1.30;;;16.50;71.60;;;;;;4904611;28;20552;-17
2023/09/16 04:26:59;;;;;;;3.17;1.70;;;16.50;71.50;;;;;;4929508;28;20245;-17
2023/09/16 04:29:25;;;;;;;2.30;1.50;;;16.50;71.60;;;;;;4936842;28;20103;-17
2023/09/16 04:31:53;;;;;;;2.30;1.50;;;16.40;71.60;;;;;;4930262;28;20307;-17
2023/09/16 04:34:19;;;;;;;2.20;1.63;;;16.80;77.40;;;;;;4929036;28;20287;-17
2023/09/16 04:36:45;;;;;;;2.50;1.65;;;16.40;71.70;;;;;;4928727;28;20261;-17
2023/09/16 04:39:11;;;;;;;2.22;1.67;;;16.40;71.80;;;;;;4933142;28;20112;-17
2023/09/16 04:41:36;;;;;;;2.67;1.50;;;16.40;71.90;;;;;;4911501;28;20117;-17
2023/09/16 04:44:03;;;;;;;2.17;1.80;;;16.30;71.90;;;;;;4944285;28;20027;-17
2023/09/16 04:46:29;;;;;;;2.38;1.70;;;16.30;71.90;;;;;;4939257;28;20035;-17
2023/09/16 04:48:55;;;;;;;2.40;1.70;;;16.30;72.00;;;;;;4933682;28;20077;-17
2023/09/16 04:51:21;;;;;;;2.40;1.70;;;16.30;72.10;;;;;;4924263;28;20053;-17
2023/09/16 04:53:49;;;;;;;2.13;1.63;;;15.20;76.70;;;;;;4934810;28;20268;-17
2023/09/16 04:56:15;;;;;;;2.58;1.70;;;16.20;72.10;;;;;;4911159;28;20031;-17
2023/09/16 04:58:41;;;;;;;2.00;1.50;;;16.30;72.20;;;;;;4930485;28;20654;-17
2023/09/16 05:01:07;;;;;;;2.43;1.63;;;17.60;78.70;;;;;;4931163;28;20078;-17
2023/09/16 05:03:33;;;;;;;2.15;1.50;;;16.20;72.20;;;;;;4897781;28;20028;-17
2023/09/16 05:05:59;;;;;;;2.65;1.60;;;16.20;73.00;;;;;;4916007;28;20584;-17
2023/09/16 05:08:25;;;;;;;2.70;1.53;;;16.20;72.20;;;;;;4936743;28;20112;-17
2023/09/16 05:10:54;;;;;;;1.98;1.50;;;16.10;72.30;;;;;;4908981;28;20024;-20
2023/09/16 05:13:20;;;;;;;2.30;1.60;;;16.10;72.70;;;;;;4938463;28;20031;-19
2023/09/16 05:15:47;;;;;;;2.90;1.73;;;16.20;72.40;;;;;;4936081;28;20390;-20
2023/09/16 05:18:14;;;;;;;2.92;1.70;;;16.10;72.60;;;;;;4923307;28;20039;-19
2023/09/16 05:20:39;;;;;;;2.42;1.63;;;16.10;72.70;;;;;;4926047;28;20039;-20
2023/09/16 05:23:05;;;;;;;3.00;1.60;;;16.10;72.70;;;;;;4929663;28;20611;-20
2023/09/16 05:25:31;;;;;;;2.70;1.73;;;16.10;72.70;;;;;;4906380;28;21737;-20
2023/09/16 05:27:57;;;;;;;2.77;1.70;;;16.10;72.80;;;;;;4926276;28;20038;-20
2023/09/16 05:30:22;;;;;;;2.17;1.53;;;16.10;72.80;;;;;;4933095;28;20270;-20
2023/09/16 05:32:48;;;;;;;1.85;1.65;;;16.10;72.90;;;;;;4934230;28;20027;-20
2023/09/16 05:35:14;;;;;;;3.13;1.80;;;16.10;73.00;;;;;;4924642;28;20043;-20
2023/09/16 05:37:39;;;;;;;2.83;2.00;;;16.10;73.10;;;;;;4919409;28;20031;-19
2023/09/16 05:40:06;;;;;;;2.60;1.80;;;16.10;73.20;;;;;;4927942;28;20058;-19
2023/09/16 05:42:32;;;;;;;2.30;1.80;;;16.10;73.30;;;;;;4904147;28;20031;-20
2023/09/16 05:45:00;;;;;;;2.80;2.00;;;16.10;73.50;;;;;;4939218;28;20120;-19
2023/09/16 05:47:29;;;;;;;2.42;1.70;;;16.10;73.60;;;;;;4930529;28;20543;-19
2023/09/16 05:49:55;;;;;;;2.83;1.80;;;16.10;73.80;;;;;;4924949;28;20039;-19
2023/09/16 05:52:21;;;;;;;2.47;1.85;;;16.10;73.60;;;;;;4939888;28;20106;-19
2023/09/16 05:54:47;;;;;;;2.40;2.00;;;16.10;73.70;;;;;;4932019;28;20342;-19
2023/09/16 05:57:12;;;;;;;3.10;1.88;;;16.10;73.80;;;;;;4912803;28;20035;-19
2023/09/16 05:59:39;;;;;;;2.77;1.73;;;16.20;73.90;;;;;;4936210;28;20032;-20
2023/09/16 06:02:05;;;;;;;2.80;2.03;;;16.20;74.00;;;;;;4933386;28;20434;-19
2023/09/16 06:04:31;;;;;;;3.20;1.90;;;16.20;74.20;;;;;;4935234;28;20161;-20
2023/09/16 06:06:56;;;;;;;3.20;2.25;;;16.30;74.40;;;;;;4918718;28;20335;-20
2023/09/16 06:09:22;;;;;;;2.90;2.00;;;16.30;74.40;;;;;;4926023;28;20035;-19
2023/09/16 06:11:48;;;;;;;2.58;1.90;;;16.30;74.50;;;;;;4911273;28;27215;-20
2023/09/16 06:14:14;;;;;;;3.00;1.90;;;16.30;74.70;;;;;;4933244;28;20077;-19
2023/09/16 06:16:39;;;;;;;2.83;1.95;;;16.40;74.70;;;;;;4923046;28;20149;-20
2023/09/16 06:19:05;;;;;;;3.50;2.10;;;16.40;75.70;;;;;;4931720;28;20395;-20
2023/09/16 06:21:31;;;;;;;3.55;2.25;;;16.50;75.00;;;;;;4926623;28;20038;-20
2023/09/16 06:23:57;;;;;;;5.27;2.23;;;16.60;75.20;;;;;;4918499;28;20800;-20
2023/09/16 06:26:23;;;;;;;2.67;2.00;;;16.60;75.40;;;;;;4934222;28;20020;-20
2023/09/16 06:28:49;;;;;;;2.97;2.17;;;15.00;79.80;;;;;;4909300;28;20030;-19
2023/09/16 06:31:15;;;;;;;3.30;1.90;;;16.70;75.70;;;;;;4946970;28;20035;-20
2023/09/16 06:33:41;;;;;;;2.80;2.10;;;16.80;75.90;;;;;;4930484;28;20286;-20
2023/09/16 06:36:07;;;;;;;2.60;1.85;;;14.00;79.90;;;;;;4936255;28;20118;-20
2023/09/16 06:38:33;;;;;;;2.70;2.17;;;16.90;76.10;;;;;;4916884;28;20490;-20
2023/09/16 06:40:58;;;;;;;3.50;2.45;;;17.00;76.30;;;;;;4928985;28;20481;-20
2023/09/16 06:43:24;;;;;;;4.30;2.43;;;17.00;76.30;;;;;;4906901;28;20394;-20
2023/09/16 06:45:50;;;;;;;3.60;2.37;;;17.10;76.40;;;;;;4938301;28;20317;-20
2023/09/16 06:48:16;;;;;;;3.88;2.22;;;17.20;76.60;;;;;;4934150;28;20126;-20
2023/09/16 06:50:43;;;;;;;3.35;2.30;;;17.30;76.90;;;;;;4927531;28;20331;-20
2023/09/16 06:53:09;;;;;;;3.42;2.55;;;17.40;76.90;;;;;;4906930;28;20112;-20
2023/09/16 06:55:35;;;;;;;3.10;2.20;;;17.50;77.00;;;;;;4924691;28;20041;-20
2023/09/16 06:58:04;;;;;;;3.25;2.35;;;17.60;77.10;;;;;;4907414;28;20035;-20
2023/09/16 07:00:30;;;;;;;3.35;2.38;;;17.70;77.20;;;;;;4933175;28;20037;-20
2023/09/16 07:02:58;;;;;;;3.60;2.40;;;17.80;77.20;;;;;;4933921;28;20525;-20
2023/09/16 07:05:24;;;;;;;3.03;2.35;;;17.80;77.20;;;;;;4931971;28;20093;-20
2023/09/16 07:07:52;;;;;;;4.65;2.50;;;17.90;77.30;;;;;;4929668;28;20046;-20
2023/09/16 07:10:19;;;;;;;3.83;2.17;;;18.00;77.80;;;;;;4912963;28;20039;-20
2023/09/16 07:12:45;;;;;;;3.85;2.53;;;18.20;78.30;;;;;;4926212;28;20591;-20
2023/09/16 07:15:10;;;;;;;2.50;1.93;;;18.30;78.30;;;;;;4904749;28;20035;-20
2023/09/16 07:17:36;;;;;;;4.13;2.38;;;18.50;78.40;;;;;;4930680;28;20433;-20
2023/09/16 07:20:02;;;;;;;4.28;2.30;;;18.70;78.40;;;;;;4934701;28;20028;-20
2023/09/16 07:22:28;;;;;;;3.43;2.33;;;18.80;78.30;;;;;;4934937;28;20179;-20
2023/09/16 07:24:54;;;;;;;3.30;2.40;;;19.00;78.70;;;;;;4919110;28;20414;-20
2023/09/16 07:27:20;;;;;;;4.43;2.53;;;19.20;79.50;;;;;;4922442;28;20597;-20
2023/09/16 07:29:45;;;;;;;3.10;2.30;;;19.50;80.40;;;;;;4903357;28;20169;-20
2023/09/16 07:32:11;;;;;;;3.15;2.35;;;19.80;80.90;;;;;;4930890;28;20486;-20
2023/09/16 07:34:37;;;;;;;4.07;2.50;;;20.20;81.30;;;;;;4924743;28;20031;-20
2023/09/16 07:37:03;;;;;;;3.28;2.60;;;20.60;82.10;;;;;;4928925;28;20027;-20
2023/09/16 07:39:29;;;;;;;4.83;2.70;;;21.00;82.80;;;;;;4924507;28;20038;-20
2023/09/16 07:41:56;;;;;;;3.35;2.50;;;21.60;83.30;;;;;;4914797;28;20513;-20
2023/09/16 07:44:21;;;;;;;3.53;2.55;;;22.10;83.60;;;;;;4937594;28;20426;-20
2023/09/16 07:46:48;;;;;;;3.28;2.58;;;22.60;83.50;;;;;;4911678;28;20114;-18
2023/09/16 07:49:15;;;;;;;3.33;2.47;;;23.20;83.30;;;;;;4943393;28;20039;-18
2023/09/16 07:51:40;;;;;;;3.63;2.45;;;23.80;82.90;;;;;;4933839;28;20420;-18
2023/09/16 07:54:10;;;;;;;3.53;2.35;;;24.30;82.30;;;;;;4944881;28;20020;-18
2023/09/16 07:56:35;;;;;;;3.08;2.50;;;24.90;81.80;;;;;;4920698;28;20027;-18
2023/09/16 07:59:01;;;;;;;3.53;2.60;;;25.30;81.10;;;;;;4912074;28;20035;-18
2023/09/16 08:01:29;;;;;;;5.07;2.80;;;25.80;80.20;;;;;;4917379;28;20089;-18
2023/09/16 08:03:54;;;;;;;3.50;2.70;;;26.20;79.00;;;;;;4927119;28;20051;-18
2023/09/16 08:06:20;;;;;;;3.83;2.80;;;26.60;77.90;;;;;;4927631;28;20414;-18
2023/09/16 08:08:49;;;;;;;3.13;2.40;;;26.80;77.40;;;;;;4930951;28;20042;-19
2023/09/16 08:11:15;;;;;;;3.50;2.33;;;27.10;77.00;;;;;;4917879;28;20354;-18
2023/09/16 08:13:40;;;;;;;2.67;2.33;;;27.50;76.70;;;;;;4919961;28;20472;-18
2023/09/16 08:16:06;;;;;;;3.22;2.50;;;27.80;76.30;;;;;;4925668;28;20032;-18
2023/09/16 08:18:32;;;;;;;3.45;2.40;;;28.10;75.50;;;;;;4910362;28;20411;-18
2023/09/16 08:20:59;;;;;;;3.40;2.80;;;28.50;75.20;;;;;;4925295;28;20038;-18
2023/09/16 08:23:25;;;;;;;4.10;2.45;;;28.80;74.80;;;;;;4937234;28;20031;-18
2023/09/16 08:25:51;;;;;;;3.00;2.42;;;29.10;74.30;;;;;;4927205;28;20088;-18
2023/09/16 08:28:17;;;;;;;4.87;2.70;;;29.50;73.70;;;;;;4919634;28;20526;-18
2023/09/16 08:30:43;;;;;;;3.22;2.40;;;29.80;73.10;;;;;;4937994;28;20034;-18
2023/09/16 08:33:09;;;;;;;3.53;2.75;;;30.10;72.70;;;;;;4906039;28;20030;-18
2023/09/16 08:35:35;;;;;;;3.97;2.43;;;30.50;71.80;;;;;;4924931;28;20617;-18
2023/09/16 08:38:02;;;;;;;3.00;2.30;;;30.80;70.60;;;;;;4928721;28;20024;-18
2023/09/16 08:40:32;;;;;;;3.00;2.35;;;31.00;69.60;;;;;;4932757;28;20028;-18
2023/09/16 08:43:18;;;;;;;3.30;2.80;;;31.20;67.40;;;;;;4917606;28;20031;-18
2023/09/16 08:45:47;;;;;;;2.80;2.45;;;31.40;64.30;;;;;;4919789;28;20036;-18
2023/09/16 08:48:16;;;;;;;2.60;2.10;;;31.50;66.10;;;;;;4907607;28;20028;-18
2023/09/16 08:50:43;;;;;;;2.60;1.98;;;31.50;65.60;;;;;;4927297;28;20047;-18
2023/09/16 08:53:12;;;;;;;2.35;2.00;;;31.60;65.50;;;;;;4921321;28;20054;-18
2023/09/16 08:55:38;;;;;;;2.60;2.20;;;31.70;64.50;;;;;;4926342;28;20394;-18
2023/09/16 08:58:06;;;;;;;2.30;2.00;;;31.80;64.70;;;;;;4921779;28;20691;-18
2023/09/16 09:00:32;;;;;;;2.50;2.20;;;31.80;63.80;;;;;;4934143;28;20027;-18
2023/09/16 09:02:58;;;;;;;3.22;2.53;;;31.90;63.70;;;;;;4919312;28;20035;-18
2023/09/16 09:05:25;;;;;;;2.95;2.65;;;32.00;63.60;;;;;;4905872;28;20054;-18
2023/09/16 09:07:51;;;;;;;2.53;2.27;;;32.20;63.00;;;;;;4927407;28;20025;-18
2023/09/16 09:10:17;;;;;;;2.65;2.30;;;32.30;63.20;;;;;;4935815;28;20027;-18
2023/09/16 09:12:44;;;;;;;2.92;2.13;;;32.40;62.30;;;;;;4920299;28;20039;-18
2023/09/16 09:15:15;;;;;;;2.30;2.10;;;32.50;61.10;;;;;;4937163;28;20552;-18
2023/09/16 09:17:48;;;;;;;4.70;2.30;;;32.50;60.50;;;;;;4923279;28;20398;-18
2023/09/16 09:20:23;;;;;;;3.22;2.50;;;32.50;59.80;;;;;;4915272;28;20726;-18
2023/09/16 09:22:50;;;;;;;2.70;2.20;;;32.70;59.80;;;;;;4923968;28;21080;-18
2023/09/16 09:25:27;;;;;;;3.35;2.60;;;32.70;60.40;;;;;;4940916;28;20074;-18
2023/09/16 09:27:57;;;;;;;3.33;2.88;;;32.90;58.60;;;;;;4905687;28;20254;-18
2023/09/16 09:30:27;;;;;;;3.57;2.40;;;33.00;59.40;;;;;;4939462;28;20018;-18
2023/09/16 09:32:56;;;;;;;3.10;2.80;;;33.20;60.40;;;;;;4935557;28;20433;-18
2023/09/16 09:35:30;;;;;;;3.80;2.60;;;33.40;58.80;;;;;;4914214;28;20704;-18
2023/09/16 09:37:57;;;;;;;2.95;2.40;;;33.50;57.40;;;;;;4942694;28;20537;-18
2023/09/16 09:40:23;;;;;;;3.40;2.67;;;33.60;58.20;;;;;;4932719;28;20486;-18
2023/09/16 09:42:56;;;;;;;3.13;2.13;;;33.60;58.10;;;;;;4933746;28;20264;-18
2023/09/16 09:45:23;;;;;;;3.38;2.60;;;33.80;57.10;;;;;;4917830;28;20122;-18
2023/09/16 09:47:51;;;;;;;3.05;2.75;;;34.00;58.10;;;;;;4921820;28;20031;-18
2023/09/16 09:50:22;;;;;;;3.28;2.60;;;34.20;57.70;;;;;;4903942;28;20039;-18
2023/09/16 09:52:50;;;;;;;3.28;2.70;;;34.40;56.80;;;;;;4936381;28;20074;-18
2023/09/16 09:55:18;;;;;;;2.70;2.20;;;34.70;57.60;;;;;;4926025;28;20035;-18
2023/09/16 09:57:47;;;;;;;2.70;2.50;;;34.90;56.90;;;;;;4945551;28;20576;-18
2023/09/16 10:00:17;;;;;;;3.10;2.80;;;35.20;56.60;;;;;;4940264;28;20245;-19
2023/09/16 10:02:44;;;;;;;2.78;2.47;;;35.50;56.50;;;;;;4939602;28;20486;-18
2023/09/16 10:05:19;;;;;;;2.60;2.38;;;35.70;56.00;;;;;;4925958;28;20275;-18
2023/09/16 10:07:45;;;;;;;2.47;2.20;;;35.90;53.60;;;;;;4913917;28;20739;-18
2023/09/16 10:10:18;;;;;;;3.00;2.58;;;36.20;54.70;;;;;;4920846;28;20042;-18
2023/09/16 10:12:47;;;;;;;3.67;2.83;;;36.30;52.90;;;;;;4936758;28;20978;-18
2023/09/16 10:15:13;;;;;;;3.50;2.40;;;36.40;53.20;;;;;;4915213;28;20062;-18
2023/09/16 10:17:41;;;;;;;4.18;2.70;;;36.50;52.60;;;;;;4951033;28;20668;-18
2023/09/16 10:20:10;;;;;;;3.53;2.90;;;36.60;52.00;;;;;;4926558;28;20022;-18
2023/09/16 10:22:39;;;;;;;3.15;2.85;;;36.70;52.10;;;;;;4926233;28;20402;-18
2023/09/16 10:25:06;;;;;;;2.55;2.20;;;36.70;51.90;;;;;;4933429;28;20118;-19
2023/09/16 10:27:39;;;;;;;3.25;2.90;;;36.80;51.50;;;;;;4923964;28;21888;-18
2023/09/16 10:30:06;;;;;;;2.67;2.47;;;36.90;50.10;;;;;;4919568;28;20118;-18
2023/09/16 10:32:32;;;;;;;2.73;2.43;;;37.00;51.00;;;;;;4919111;28;20027;-18
2023/09/16 10:35:00;;;;;;;3.20;2.90;;;37.00;50.50;;;;;;4917224;28;20031;-18
2023/09/16 10:37:26;;;;;;;3.10;2.70;;;37.00;50.30;;;;;;4896114;28;20516;-19
2023/09/16 10:39:55;;;;;;;2.75;2.47;;;37.10;50.10;;;;;;4935630;28;20036;-18
2023/09/16 10:42:22;;;;;;;2.85;2.58;;;37.10;49.70;;;;;;4928608;28;20043;-18
2023/09/16 10:44:47;;;;;;;3.20;2.90;;;37.20;49.40;;;;;;4919158;28;20034;-18
2023/09/16 10:47:16;;;;;;;3.03;2.72;;;37.20;50.00;;;;;;4920180;28;20065;-19
2023/09/16 10:49:42;;;;;;;2.95;2.75;;;37.20;48.90;;;;;;4917229;28;20052;-19
2023/09/16 10:52:13;;;;;;;3.13;2.30;;;37.20;48.70;;;;;;4898637;28;20197;-19
2023/09/16 10:54:45;;;;;;;2.47;2.28;;;37.20;48.20;;;;;;4928890;28;20036;-19
2023/09/16 10:57:18;;;;;;;2.63;2.40;;;37.10;47.80;;;;;;4918169;28;20105;-19
2023/09/16 10:59:47;;;;;;;2.25;2.05;;;37.10;47.50;;;;;;4932900;28;20018;-19
2023/09/16 11:02:23;;;;;;;3.00;2.70;;;37.10;47.60;;;;;;4911092;28;20555;-19
2023/09/16 11:04:49;;;;;;;2.80;2.60;;;37.10;46.90;;;;;;4921928;28;20271;-18
2023/09/16 11:07:18;;;;;;;2.92;2.38;;;37.00;47.80;;;;;;4898608;28;20055;-18
2023/09/16 11:09:45;;;;;;;2.95;2.72;;;37.00;47.60;;;;;;4928651;28;20023;-18
2023/09/16 11:12:11;;;;;;;2.55;2.30;;;36.90;47.50;;;;;;4922920;28;20044;-19
2023/09/16 11:14:37;;;;;;;2.60;2.40;;;36.90;47.50;;;;;;4938645;28;20370;-18
2023/09/16 11:17:14;;;;;;;2.33;2.10;;;36.90;47.40;;;;;;4918817;28;20111;-19
2023/09/16 11:19:42;;;;;;;2.70;2.40;;;36.80;46.40;;;;;;4919143;28;20447;-19
2023/09/16 11:22:11;;;;;;;2.80;2.28;;;36.80;47.10;;;;;;4888262;28;20711;-18
2023/09/16 11:24:37;;;;;;;2.95;2.53;;;36.70;46.90;;;;;;4937039;28;20487;-18
2023/09/16 11:27:04;;;;;;;2.78;2.35;;;36.60;47.00;;;;;;4920306;28;20133;-19
2023/09/16 11:29:33;;;;;;;2.60;2.40;;;36.60;46.90;;;;;;4928619;28;20015;-19
2023/09/16 11:32:00;;;;;;;2.95;2.65;;;36.50;46.90;;;;;;4940179;28;20028;-18
2023/09/16 11:34:28;;;;;;;2.70;2.15;;;36.50;46.90;;;;;;4945402;28;20023;-19
2023/09/16 11:36:58;;;;;;;4.35;2.75;;;36.40;46.60;;;;;;4900024;28;20047;-19
2023/09/16 11:39:34;;;;;;;2.70;2.33;;;36.40;46.80;;;;;;4931648;28;20080;-19
2023/09/16 11:42:01;;;;;;;2.87;2.53;;;36.40;46.70;;;;;;4930547;28;20051;-19
2023/09/16 11:44:28;;;;;;;2.60;2.20;;;36.40;47.30;;;;;;4941175;28;20104;-19
2023/09/16 11:46:54;;;;;;;2.58;2.38;;;36.50;47.50;;;;;;4942514;28;23496;-19
2023/09/16 11:49:21;;;;;;;3.78;2.25;;;36.60;47.30;;;;;;4938672;28;20031;-19
2023/09/16 11:51:51;;;;;;;3.05;2.70;;;36.60;47.20;;;;;;4918333;28;20039;-19
2023/09/16 11:54:18;;;;;;;2.47;2.27;;;36.60;47.00;;;;;;4915056;28;20025;-18
2023/09/16 11:56:44;;;;;;;3.00;2.70;;;36.70;47.20;;;;;;4933869;28;20098;-19
2023/09/16 11:59:11;;;;;;;3.30;2.58;;;36.70;47.20;;;;;;4925474;28;20096;-18
2023/09/16 12:01:40;;;;;;;2.70;2.30;;;36.90;47.30;;;;;;4921935;28;20040;-18
2023/09/16 12:04:09;;;;;;;2.53;2.33;;;37.00;47.50;;;;;;4927325;28;20046;-18
2023/09/16 12:06:36;;;;;;;2.37;2.17;;;37.20;47.20;;;;;;4927444;28;20031;-18
2023/09/16 12:09:04;;;;;;;2.88;2.60;;;37.40;47.40;;;;;;4906298;28;20039;-18
2023/09/16 12:11:31;;;;;;;3.40;2.28;;;37.60;46.80;;;;;;4925157;28;20098;-18
2023/09/16 12:13:58;;;;;;;2.58;2.33;;;37.80;47.10;;;;;;4935830;28;20035;-19
2023/09/16 12:16:24;;;;;;;3.03;2.72;;;38.00;47.30;;;;;;4923999;28;20486;-19
2023/09/16 12:18:50;;;;;;;3.10;2.80;;;38.20;46.60;;;;;;4918574;28;20141;-19
2023/09/16 12:21:16;;;;;;;4.57;2.58;;;38.40;46.20;;;;;;4935493;28;20054;-19
2023/09/16 12:23:45;;;;;;;3.33;2.85;;;38.50;45.20;;;;;;4926145;28;20381;-19
2023/09/16 12:26:12;;;;;;;5.43;2.78;;;38.40;44.30;;;;;;4904645;28;20046;-19
2023/09/16 12:28:39;;;;;;;2.83;2.40;;;38.10;44.00;;;;;;4955318;28;20282;-18
2023/09/16 12:31:11;;;;;;;2.72;2.30;;;38.00;44.20;;;;;;4924801;28;20607;-18
2023/09/16 12:33:47;;;;;;;3.10;2.80;;;37.80;44.50;;;;;;4922929;28;20573;-19
2023/09/16 12:36:21;;;;;;;3.67;2.75;;;37.80;44.10;;;;;;4933800;28;20425;-18
2023/09/16 12:38:48;;;;;;;2.67;2.28;;;37.70;44.30;;;;;;4933885;28;20790;-19
2023/09/16 12:41:15;;;;;;;3.23;2.57;;;37.60;44.90;;;;;;4911009;28;20027;-19
2023/09/16 12:43:42;;;;;;;2.92;2.15;;;37.60;44.80;;;;;;4921645;28;20070;-19
2023/09/16 12:46:09;;;;;;;4.18;2.20;;;37.50;44.40;;;;;;4919661;28;20027;-18
2023/09/16 12:48:37;;;;;;;3.10;2.20;;;37.30;44.10;;;;;;4903420;28;20268;-18